TAF Text Data
IDs:
Format:
Raw Decoded Include METAR

Data at: 0240 UTC 29 Nov 2020

KBOS 282320Z 2900/3006 29010KT P6SM FEW100
  FM290400 27006KT P6SM FEW250
  FM291500 24006KT P6SM SKC
  FM300100 21005KT P6SM FEW250